sensor_id;sensor_type;location;lat;lon;timestamp;P1;durP1;ratioP1;P2;durP2;ratioP2
3261;SDS011;1643;47.746;9.000;2023-07-13T00:02:06;7.20;;;3.60;;
3261;SDS011;1643;47.746;9.000;2023-07-13T00:04:32;4.00;;;3.60;;
3261;SDS011;1643;47.746;9.000;2023-07-13T00:06:57;3.90;;;3.30;;
3261;SDS011;1643;47.746;9.000;2023-07-13T00:09:23;5.83;;;3.70;;
3261;SDS011;1643;47.746;9.000;2023-07-13T00:11:53;4.50;;;4.10;;
3261;SDS011;1643;47.746;9.000;2023-07-13T00:14:20;8.10;;;3.60;;
3261;SDS011;1643;47.746;9.000;2023-07-13T00:16:47;3.93;;;3.37;;
3261;SDS011;1643;47.746;9.000;2023-07-13T00:19:13;5.27;;;2.87;;
3261;SDS011;1643;47.746;9.000;2023-07-13T00:21:39;4.20;;;3.23;;
3261;SDS011;1643;47.746;9.000;2023-07-13T00:24:06;3.17;;;2.93;;
3261;SDS011;1643;47.746;9.000;2023-07-13T00:26:33;4.10;;;3.13;;
3261;SDS011;1643;47.746;9.000;2023-07-13T00:28:59;5.40;;;3.00;;
3261;SDS011;1643;47.746;9.000;2023-07-13T00:31:25;4.83;;;3.10;;
3261;SDS011;1643;47.746;9.000;2023-07-13T00:33:50;3.70;;;3.33;;
3261;SDS011;1643;47.746;9.000;2023-07-13T00:36:16;4.20;;;3.10;;
3261;SDS011;1643;47.746;9.000;2023-07-13T00:38:42;4.73;;;3.20;;
3261;SDS011;1643;47.746;9.000;2023-07-13T00:41:09;4.73;;;3.30;;
3261;SDS011;1643;47.746;9.000;2023-07-13T00:43:35;2.90;;;2.63;;
3261;SDS011;1643;47.746;9.000;2023-07-13T00:48:27;4.07;;;3.67;;
3261;SDS011;1643;47.746;9.000;2023-07-13T00:50:57;3.93;;;3.47;;
3261;SDS011;1643;47.746;9.000;2023-07-13T00:53:26;4.00;;;2.80;;
3261;SDS011;1643;47.746;9.000;2023-07-13T00:55:53;3.77;;;2.87;;
3261;SDS011;1643;47.746;9.000;2023-07-13T00:58:21;6.07;;;3.33;;
3261;SDS011;1643;47.746;9.000;2023-07-13T01:00:47;4.90;;;2.80;;
3261;SDS011;1643;47.746;9.000;2023-07-13T01:03:14;3.80;;;3.03;;
3261;SDS011;1643;47.746;9.000;2023-07-13T01:05:40;3.50;;;3.00;;
3261;SDS011;1643;47.746;9.000;2023-07-13T01:08:06;4.57;;;3.20;;
3261;SDS011;1643;47.746;9.000;2023-07-13T01:10:33;3.50;;;2.97;;
3261;SDS011;1643;47.746;9.000;2023-07-13T01:13:05;3.00;;;2.70;;
3261;SDS011;1643;47.746;9.000;2023-07-13T01:15:36;3.23;;;2.90;;
3261;SDS011;1643;47.746;9.000;2023-07-13T01:18:11;6.23;;;3.40;;
3261;SDS011;1643;47.746;9.000;2023-07-13T01:20:39;3.63;;;3.30;;
3261;SDS011;1643;47.746;9.000;2023-07-13T01:23:07;5.80;;;3.23;;
3261;SDS011;1643;47.746;9.000;2023-07-13T01:25:38;4.87;;;3.20;;
3261;SDS011;1643;47.746;9.000;2023-07-13T01:28:04;6.27;;;3.30;;
3261;SDS011;1643;47.746;9.000;2023-07-13T01:30:33;3.17;;;2.73;;
3261;SDS011;1643;47.746;9.000;2023-07-13T01:33:00;4.70;;;3.23;;
3261;SDS011;1643;47.746;9.000;2023-07-13T01:35:26;5.00;;;3.40;;
3261;SDS011;1643;47.746;9.000;2023-07-13T01:37:52;3.60;;;2.70;;
3261;SDS011;1643;47.746;9.000;2023-07-13T01:40:19;3.77;;;2.80;;
3261;SDS011;1643;47.746;9.000;2023-07-13T01:42:45;8.80;;;3.17;;
3261;SDS011;1643;47.746;9.000;2023-07-13T01:45:11;6.87;;;3.10;;
3261;SDS011;1643;47.746;9.000;2023-07-13T01:47:37;7.20;;;3.37;;
3261;SDS011;1643;47.746;9.000;2023-07-13T01:50:02;4.63;;;3.63;;
3261;SDS011;1643;47.746;9.000;2023-07-13T01:52:28;9.83;;;4.13;;
3261;SDS011;1643;47.746;9.000;2023-07-13T01:54:54;8.00;;;3.90;;
3261;SDS011;1643;47.746;9.000;2023-07-13T01:57:19;5.27;;;4.17;;
3261;SDS011;1643;47.746;9.000;2023-07-13T01:59:45;7.40;;;4.93;;
3261;SDS011;1643;47.746;9.000;2023-07-13T02:02:11;4.13;;;3.67;;
3261;SDS011;1643;47.746;9.000;2023-07-13T02:04:37;6.07;;;3.30;;
3261;SDS011;1643;47.746;9.000;2023-07-13T02:07:02;4.20;;;3.57;;
3261;SDS011;1643;47.746;9.000;2023-07-13T02:09:28;5.23;;;3.87;;
3261;SDS011;1643;47.746;9.000;2023-07-13T02:11:54;4.90;;;4.40;;
3261;SDS011;1643;47.746;9.000;2023-07-13T02:14:19;5.43;;;3.73;;
3261;SDS011;1643;47.746;9.000;2023-07-13T02:16:45;4.73;;;4.03;;
3261;SDS011;1643;47.746;9.000;2023-07-13T02:19:11;6.30;;;3.60;;
3261;SDS011;1643;47.746;9.000;2023-07-13T02:21:36;7.10;;;3.90;;
3261;SDS011;1643;47.746;9.000;2023-07-13T02:24:02;6.17;;;4.10;;
3261;SDS011;1643;47.746;9.000;2023-07-13T02:26:28;6.70;;;3.60;;
3261;SDS011;1643;47.746;9.000;2023-07-13T02:28:53;6.77;;;4.10;;
3261;SDS011;1643;47.746;9.000;2023-07-13T02:31:19;4.90;;;3.93;;
3261;SDS011;1643;47.746;9.000;2023-07-13T02:33:45;6.70;;;4.77;;
3261;SDS011;1643;47.746;9.000;2023-07-13T02:36:11;4.30;;;3.73;;
3261;SDS011;1643;47.746;9.000;2023-07-13T02:38:39;3.90;;;3.27;;
3261;SDS011;1643;47.746;9.000;2023-07-13T02:41:05;4.17;;;3.30;;
3261;SDS011;1643;47.746;9.000;2023-07-13T02:43:33;6.00;;;4.50;;
3261;SDS011;1643;47.746;9.000;2023-07-13T02:45:59;4.03;;;3.63;;
3261;SDS011;1643;47.746;9.000;2023-07-13T02:48:31;4.30;;;3.40;;
3261;SDS011;1643;47.746;9.000;2023-07-13T02:50:58;4.53;;;3.30;;
3261;SDS011;1643;47.746;9.000;2023-07-13T02:53:23;6.17;;;4.40;;
3261;SDS011;1643;47.746;9.000;2023-07-13T02:55:49;5.30;;;3.73;;
3261;SDS011;1643;47.746;9.000;2023-07-13T02:58:15;6.20;;;3.50;;
3261;SDS011;1643;47.746;9.000;2023-07-13T03:00:42;3.43;;;3.13;;
3261;SDS011;1643;47.746;9.000;2023-07-13T03:03:08;5.07;;;3.27;;
3261;SDS011;1643;47.746;9.000;2023-07-13T03:05:34;3.60;;;3.30;;
3261;SDS011;1643;47.746;9.000;2023-07-13T03:08:02;3.63;;;3.30;;
3261;SDS011;1643;47.746;9.000;2023-07-13T03:10:29;3.93;;;3.53;;
3261;SDS011;1643;47.746;9.000;2023-07-13T03:12:54;4.77;;;3.10;;
3261;SDS011;1643;47.746;9.000;2023-07-13T03:15:20;4.07;;;3.67;;
3261;SDS011;1643;47.746;9.000;2023-07-13T03:17:46;3.97;;;3.57;;
3261;SDS011;1643;47.746;9.000;2023-07-13T03:20:12;3.67;;;3.13;;
3261;SDS011;1643;47.746;9.000;2023-07-13T03:22:37;4.50;;;3.83;;
3261;SDS011;1643;47.746;9.000;2023-07-13T03:25:03;5.40;;;4.20;;
3261;SDS011;1643;47.746;9.000;2023-07-13T03:27:29;6.97;;;3.57;;
3261;SDS011;1643;47.746;9.000;2023-07-13T03:29:55;6.33;;;3.43;;
3261;SDS011;1643;47.746;9.000;2023-07-13T03:32:21;3.10;;;2.80;;
3261;SDS011;1643;47.746;9.000;2023-07-13T03:34:47;5.87;;;3.30;;
3261;SDS011;1643;47.746;9.000;2023-07-13T03:37:12;8.80;;;3.80;;
3261;SDS011;1643;47.746;9.000;2023-07-13T03:39:38;5.03;;;3.90;;
3261;SDS011;1643;47.746;9.000;2023-07-13T03:42:04;5.03;;;3.87;;
3261;SDS011;1643;47.746;9.000;2023-07-13T03:44:29;3.60;;;3.30;;
3261;SDS011;1643;47.746;9.000;2023-07-13T03:46:55;5.77;;;3.80;;
3261;SDS011;1643;47.746;9.000;2023-07-13T03:49:21;5.70;;;3.70;;
3261;SDS011;1643;47.746;9.000;2023-07-13T03:51:46;6.80;;;3.90;;
3261;SDS011;1643;47.746;9.000;2023-07-13T03:54:12;4.23;;;3.83;;
3261;SDS011;1643;47.746;9.000;2023-07-13T03:56:38;6.67;;;4.13;;
3261;SDS011;1643;47.746;9.000;2023-07-13T03:59:04;3.93;;;3.40;;
3261;SDS011;1643;47.746;9.000;2023-07-13T04:01:29;8.23;;;3.60;;
3261;SDS011;1643;47.746;9.000;2023-07-13T04:03:55;5.10;;;3.90;;
3261;SDS011;1643;47.746;9.000;2023-07-13T04:06:22;6.33;;;3.97;;
3261;SDS011;1643;47.746;9.000;2023-07-13T04:08:52;6.13;;;4.50;;
3261;SDS011;1643;47.746;9.000;2023-07-13T04:11:19;4.83;;;4.13;;
3261;SDS011;1643;47.746;9.000;2023-07-13T04:13:46;4.60;;;4.20;;
3261;SDS011;1643;47.746;9.000;2023-07-13T04:16:13;6.30;;;4.17;;
3261;SDS011;1643;47.746;9.000;2023-07-13T04:18:40;4.60;;;4.20;;
3261;SDS011;1643;47.746;9.000;2023-07-13T04:21:06;5.97;;;3.70;;
3261;SDS011;1643;47.746;9.000;2023-07-13T04:23:32;5.53;;;4.00;;
3261;SDS011;1643;47.746;9.000;2023-07-13T04:25:57;5.93;;;4.00;;
3261;SDS011;1643;47.746;9.000;2023-07-13T04:28:23;5.63;;;3.97;;
3261;SDS011;1643;47.746;9.000;2023-07-13T04:30:50;4.93;;;3.93;;
3261;SDS011;1643;47.746;9.000;2023-07-13T04:33:16;5.03;;;3.43;;
3261;SDS011;1643;47.746;9.000;2023-07-13T04:35:45;5.17;;;3.87;;
3261;SDS011;1643;47.746;9.000;2023-07-13T04:38:11;4.30;;;3.57;;
3261;SDS011;1643;47.746;9.000;2023-07-13T04:40:37;4.70;;;3.67;;
3261;SDS011;1643;47.746;9.000;2023-07-13T04:43:03;3.27;;;2.97;;
3261;SDS011;1643;47.746;9.000;2023-07-13T04:45:29;3.80;;;3.37;;
3261;SDS011;1643;47.746;9.000;2023-07-13T04:47:56;4.40;;;4.00;;
3261;SDS011;1643;47.746;9.000;2023-07-13T04:50:22;4.40;;;3.90;;
3261;SDS011;1643;47.746;9.000;2023-07-13T04:52:51;5.20;;;3.90;;
3261;SDS011;1643;47.746;9.000;2023-07-13T04:55:17;4.97;;;3.83;;
3261;SDS011;1643;47.746;9.000;2023-07-13T04:57:44;4.80;;;3.90;;
3261;SDS011;1643;47.746;9.000;2023-07-13T05:00:10;4.50;;;3.77;;
3261;SDS011;1643;47.746;9.000;2023-07-13T05:02:37;5.20;;;3.57;;
3261;SDS011;1643;47.746;9.000;2023-07-13T05:05:04;4.40;;;3.73;;
3261;SDS011;1643;47.746;9.000;2023-07-13T05:07:30;7.90;;;3.80;;
3261;SDS011;1643;47.746;9.000;2023-07-13T05:09:58;4.90;;;3.87;;
3261;SDS011;1643;47.746;9.000;2023-07-13T05:12:24;3.80;;;3.47;;
3261;SDS011;1643;47.746;9.000;2023-07-13T05:14:50;5.23;;;3.87;;
3261;SDS011;1643;47.746;9.000;2023-07-13T05:17:16;4.47;;;3.80;;
3261;SDS011;1643;47.746;9.000;2023-07-13T05:19:41;7.67;;;3.70;;
3261;SDS011;1643;47.746;9.000;2023-07-13T05:22:07;4.40;;;3.80;;
3261;SDS011;1643;47.746;9.000;2023-07-13T05:24:33;6.00;;;3.50;;
3261;SDS011;1643;47.746;9.000;2023-07-13T05:26:58;5.33;;;4.73;;
3261;SDS011;1643;47.746;9.000;2023-07-13T05:29:24;3.90;;;3.50;;
3261;SDS011;1643;47.746;9.000;2023-07-13T05:31:50;4.27;;;3.87;;
3261;SDS011;1643;47.746;9.000;2023-07-13T05:34:16;5.73;;;4.37;;
3261;SDS011;1643;47.746;9.000;2023-07-13T05:36:42;4.83;;;4.33;;
3261;SDS011;1643;47.746;9.000;2023-07-13T05:39:07;5.87;;;4.27;;
3261;SDS011;1643;47.746;9.000;2023-07-13T05:41:33;7.03;;;4.10;;
3261;SDS011;1643;47.746;9.000;2023-07-13T05:43:59;6.83;;;3.73;;
3261;SDS011;1643;47.746;9.000;2023-07-13T05:46:25;7.10;;;4.83;;
3261;SDS011;1643;47.746;9.000;2023-07-13T05:48:50;5.90;;;4.30;;
3261;SDS011;1643;47.746;9.000;2023-07-13T05:51:16;6.63;;;4.63;;
3261;SDS011;1643;47.746;9.000;2023-07-13T05:53:42;6.07;;;4.03;;
3261;SDS011;1643;47.746;9.000;2023-07-13T05:56:08;6.40;;;4.30;;
3261;SDS011;1643;47.746;9.000;2023-07-13T05:58:33;4.73;;;4.20;;
3261;SDS011;1643;47.746;9.000;2023-07-13T06:01:09;6.00;;;4.37;;
3261;SDS011;1643;47.746;9.000;2023-07-13T06:03:37;6.20;;;4.10;;
3261;SDS011;1643;47.746;9.000;2023-07-13T06:06:04;5.70;;;4.27;;
3261;SDS011;1643;47.746;9.000;2023-07-13T06:08:30;4.90;;;4.07;;
3261;SDS011;1643;47.746;9.000;2023-07-13T06:11:03;6.93;;;4.50;;
3261;SDS011;1643;47.746;9.000;2023-07-13T06:13:48;4.77;;;4.07;;
3261;SDS011;1643;47.746;9.000;2023-07-13T06:16:15;6.80;;;4.63;;
3261;SDS011;1643;47.746;9.000;2023-07-13T06:18:41;11.13;;;5.03;;
3261;SDS011;1643;47.746;9.000;2023-07-13T06:21:08;6.30;;;4.90;;
3261;SDS011;1643;47.746;9.000;2023-07-13T06:23:35;5.93;;;5.07;;
3261;SDS011;1643;47.746;9.000;2023-07-13T06:26:02;5.37;;;4.00;;
3261;SDS011;1643;47.746;9.000;2023-07-13T06:28:29;6.13;;;4.93;;
3261;SDS011;1643;47.746;9.000;2023-07-13T06:30:56;7.80;;;4.73;;
3261;SDS011;1643;47.746;9.000;2023-07-13T06:33:22;5.03;;;4.53;;
3261;SDS011;1643;47.746;9.000;2023-07-13T06:35:48;9.53;;;4.37;;
3261;SDS011;1643;47.746;9.000;2023-07-13T06:38:13;4.93;;;4.43;;
3261;SDS011;1643;47.746;9.000;2023-07-13T06:40:39;7.43;;;5.00;;
3261;SDS011;1643;47.746;9.000;2023-07-13T06:43:05;5.40;;;4.90;;
3261;SDS011;1643;47.746;9.000;2023-07-13T06:45:32;7.00;;;5.10;;
3261;SDS011;1643;47.746;9.000;2023-07-13T06:48:05;7.20;;;4.47;;
3261;SDS011;1643;47.746;9.000;2023-07-13T06:50:30;6.47;;;4.73;;
3261;SDS011;1643;47.746;9.000;2023-07-13T06:52:56;5.97;;;4.80;;
3261;SDS011;1643;47.746;9.000;2023-07-13T06:55:22;5.00;;;4.50;;
3261;SDS011;1643;47.746;9.000;2023-07-13T06:57:47;6.13;;;5.33;;
3261;SDS011;1643;47.746;9.000;2023-07-13T07:00:13;7.30;;;5.10;;
3261;SDS011;1643;47.746;9.000;2023-07-13T07:02:39;7.80;;;5.57;;
3261;SDS011;1643;47.746;9.000;2023-07-13T07:05:05;10.87;;;5.50;;
3261;SDS011;1643;47.746;9.000;2023-07-13T07:07:31;6.63;;;5.10;;
3261;SDS011;1643;47.746;9.000;2023-07-13T07:09:56;7.00;;;5.17;;
3261;SDS011;1643;47.746;9.000;2023-07-13T07:12:22;7.67;;;4.60;;
3261;SDS011;1643;47.746;9.000;2023-07-13T07:14:47;4.77;;;3.57;;
3261;SDS011;1643;47.746;9.000;2023-07-13T07:17:13;4.23;;;3.23;;
3261;SDS011;1643;47.746;9.000;2023-07-13T07:19:39;5.90;;;3.43;;
3261;SDS011;1643;47.746;9.000;2023-07-13T07:22:05;5.10;;;3.30;;
3261;SDS011;1643;47.746;9.000;2023-07-13T07:24:31;4.50;;;3.47;;
3261;SDS011;1643;47.746;9.000;2023-07-13T07:26:56;3.67;;;3.23;;
3261;SDS011;1643;47.746;9.000;2023-07-13T07:29:22;5.03;;;3.17;;
3261;SDS011;1643;47.746;9.000;2023-07-13T07:31:50;5.20;;;2.87;;
3261;SDS011;1643;47.746;9.000;2023-07-13T07:34:15;3.23;;;2.37;;
3261;SDS011;1643;47.746;9.000;2023-07-13T07:36:41;4.43;;;3.50;;
3261;SDS011;1643;47.746;9.000;2023-07-13T07:39:06;3.47;;;2.30;;
3261;SDS011;1643;47.746;9.000;2023-07-13T07:41:32;3.63;;;2.73;;
3261;SDS011;1643;47.746;9.000;2023-07-13T07:43:58;3.07;;;2.30;;
3261;SDS011;1643;47.746;9.000;2023-07-13T07:46:23;3.73;;;2.50;;
3261;SDS011;1643;47.746;9.000;2023-07-13T07:48:49;4.20;;;2.13;;
3261;SDS011;1643;47.746;9.000;2023-07-13T07:51:15;2.00;;;1.90;;
3261;SDS011;1643;47.746;9.000;2023-07-13T07:53:40;7.70;;;2.10;;
3261;SDS011;1643;47.746;9.000;2023-07-13T07:56:06;4.60;;;2.47;;
3261;SDS011;1643;47.746;9.000;2023-07-13T07:58:32;4.60;;;2.17;;
3261;SDS011;1643;47.746;9.000;2023-07-13T08:01:04;4.13;;;2.17;;
3261;SDS011;1643;47.746;9.000;2023-07-13T08:03:31;4.50;;;2.13;;
3261;SDS011;1643;47.746;9.000;2023-07-13T08:05:56;5.03;;;2.50;;
3261;SDS011;1643;47.746;9.000;2023-07-13T08:08:22;3.13;;;2.23;;
3261;SDS011;1643;47.746;9.000;2023-07-13T08:10:49;2.17;;;1.97;;
3261;SDS011;1643;47.746;9.000;2023-07-13T08:13:14;4.03;;;2.30;;
3261;SDS011;1643;47.746;9.000;2023-07-13T08:15:40;5.17;;;2.20;;
3261;SDS011;1643;47.746;9.000;2023-07-13T08:18:06;2.40;;;2.20;;
3261;SDS011;1643;47.746;9.000;2023-07-13T08:20:36;3.87;;;2.27;;
3261;SDS011;1643;47.746;9.000;2023-07-13T08:23:03;3.40;;;2.50;;
3261;SDS011;1643;47.746;9.000;2023-07-13T08:25:28;2.90;;;2.47;;
3261;SDS011;1643;47.746;9.000;2023-07-13T08:27:54;3.57;;;2.40;;
3261;SDS011;1643;47.746;9.000;2023-07-13T08:30:20;5.13;;;2.97;;
3261;SDS011;1643;47.746;9.000;2023-07-13T08:32:45;2.20;;;2.00;;
3261;SDS011;1643;47.746;9.000;2023-07-13T08:35:11;2.30;;;2.10;;
3261;SDS011;1643;47.746;9.000;2023-07-13T08:37:38;7.13;;;2.67;;
3261;SDS011;1643;47.746;9.000;2023-07-13T08:40:04;3.70;;;2.67;;
3261;SDS011;1643;47.746;9.000;2023-07-13T08:47:55;6.17;;;2.27;;
3261;SDS011;1643;47.746;9.000;2023-07-13T08:50:27;3.80;;;2.20;;
3261;SDS011;1643;47.746;9.000;2023-07-13T08:52:59;2.90;;;2.30;;
3261;SDS011;1643;47.746;9.000;2023-07-13T08:55:28;2.10;;;1.87;;
3261;SDS011;1643;47.746;9.000;2023-07-13T08:58:14;4.77;;;2.13;;
3261;SDS011;1643;47.746;9.000;2023-07-13T09:03:23;3.80;;;2.10;;
3261;SDS011;1643;47.746;9.000;2023-07-13T09:05:56;2.07;;;1.87;;
3261;SDS011;1643;47.746;9.000;2023-07-13T09:16:32;1.70;;;1.60;;
3261;SDS011;1643;47.746;9.000;2023-07-13T09:19:00;5.20;;;2.40;;
3261;SDS011;1643;47.746;9.000;2023-07-13T09:21:31;7.63;;;2.30;;
3261;SDS011;1643;47.746;9.000;2023-07-13T09:24:06;2.00;;;1.80;;
3261;SDS011;1643;47.746;9.000;2023-07-13T09:27:01;7.57;;;1.70;;
3261;SDS011;1643;47.746;9.000;2023-07-13T09:29:34;1.90;;;1.80;;
3261;SDS011;1643;47.746;9.000;2023-07-13T09:32:01;3.23;;;2.20;;
3261;SDS011;1643;47.746;9.000;2023-07-13T09:34:30;2.10;;;1.90;;
3261;SDS011;1643;47.746;9.000;2023-07-13T09:36:58;2.57;;;1.87;;
3261;SDS011;1643;47.746;9.000;2023-07-13T09:39:31;3.97;;;2.10;;
3261;SDS011;1643;47.746;9.000;2023-07-13T09:42:07;3.27;;;2.53;;
3261;SDS011;1643;47.746;9.000;2023-07-13T09:44:44;3.20;;;2.00;;
3261;SDS011;1643;47.746;9.000;2023-07-13T09:47:21;2.57;;;2.03;;
3261;SDS011;1643;47.746;9.000;2023-07-13T09:49:59;4.80;;;2.00;;
3261;SDS011;1643;47.746;9.000;2023-07-13T09:52:26;5.03;;;2.97;;
3261;SDS011;1643;47.746;9.000;2023-07-13T09:55:03;2.60;;;2.17;;
3261;SDS011;1643;47.746;9.000;2023-07-13T09:57:29;3.03;;;2.10;;
3261;SDS011;1643;47.746;9.000;2023-07-13T09:59:56;2.93;;;1.90;;
3261;SDS011;1643;47.746;9.000;2023-07-13T10:02:30;2.03;;;1.80;;
3261;SDS011;1643;47.746;9.000;2023-07-13T10:05:05;3.80;;;2.10;;
3261;SDS011;1643;47.746;9.000;2023-07-13T10:07:35;3.37;;;2.53;;
3261;SDS011;1643;47.746;9.000;2023-07-13T10:10:12;4.10;;;2.50;;
3261;SDS011;1643;47.746;9.000;2023-07-13T10:12:47;3.03;;;1.90;;
3261;SDS011;1643;47.746;9.000;2023-07-13T10:15:15;1.70;;;1.60;;
3261;SDS011;1643;47.746;9.000;2023-07-13T10:17:43;2.63;;;1.90;;
3261;SDS011;1643;47.746;9.000;2023-07-13T10:20:10;4.00;;;1.77;;
3261;SDS011;1643;47.746;9.000;2023-07-13T10:25:24;2.00;;;1.90;;
3261;SDS011;1643;47.746;9.000;2023-07-13T10:27:53;2.27;;;2.07;;
3261;SDS011;1643;47.746;9.000;2023-07-13T10:30:33;1.90;;;1.80;;
3261;SDS011;1643;47.746;9.000;2023-07-13T10:33:04;2.57;;;1.53;;
3261;SDS011;1643;47.746;9.000;2023-07-13T10:35:36;7.03;;;1.80;;
3261;SDS011;1643;47.746;9.000;2023-07-13T10:38:05;1.93;;;1.83;;
3261;SDS011;1643;47.746;9.000;2023-07-13T10:41:01;3.70;;;2.30;;
3261;SDS011;1643;47.746;9.000;2023-07-13T10:43:38;1.80;;;1.70;;
3261;SDS011;1643;47.746;9.000;2023-07-13T10:46:08;2.37;;;1.80;;
3261;SDS011;1643;47.746;9.000;2023-07-13T10:48:37;2.03;;;1.90;;
3261;SDS011;1643;47.746;9.000;2023-07-13T10:51:05;1.90;;;1.80;;
3261;SDS011;1643;47.746;9.000;2023-07-13T10:53:33;3.03;;;1.90;;
3261;SDS011;1643;47.746;9.000;2023-07-13T10:56:05;2.80;;;1.83;;
3261;SDS011;1643;47.746;9.000;2023-07-13T10:58:44;4.70;;;2.37;;
3261;SDS011;1643;47.746;9.000;2023-07-13T11:01:15;1.70;;;1.60;;
3261;SDS011;1643;47.746;9.000;2023-07-13T11:03:54;3.43;;;1.97;;
3261;SDS011;1643;47.746;9.000;2023-07-13T11:06:39;3.63;;;2.20;;
3261;SDS011;1643;47.746;9.000;2023-07-13T11:12:06;3.07;;;2.30;;
3261;SDS011;1643;47.746;9.000;2023-07-13T11:23:26;2.10;;;1.90;;
3261;SDS011;1643;47.746;9.000;2023-07-13T11:25:38;4.93;;;2.23;;
3261;SDS011;1643;47.746;9.000;2023-07-13T11:28:06;2.70;;;2.00;;
3261;SDS011;1643;47.746;9.000;2023-07-13T11:30:36;1.70;;;1.60;;
3261;SDS011;1643;47.746;9.000;2023-07-13T11:36:13;2.77;;;1.80;;
3261;SDS011;1643;47.746;9.000;2023-07-13T11:38:51;2.60;;;2.00;;
3261;SDS011;1643;47.746;9.000;2023-07-13T11:41:25;2.30;;;1.83;;
3261;SDS011;1643;47.746;9.000;2023-07-13T11:46:54;2.27;;;1.60;;
3261;SDS011;1643;47.746;9.000;2023-07-13T11:49:26;1.80;;;1.70;;
3261;SDS011;1643;47.746;9.000;2023-07-13T11:51:54;1.60;;;1.50;;
3261;SDS011;1643;47.746;9.000;2023-07-13T11:54:31;4.50;;;2.73;;
3261;SDS011;1643;47.746;9.000;2023-07-13T11:57:02;1.67;;;1.57;;
3261;SDS011;1643;47.746;9.000;2023-07-13T11:59:43;1.73;;;1.63;;
3261;SDS011;1643;47.746;9.000;2023-07-13T12:02:16;3.33;;;2.17;;
3261;SDS011;1643;47.746;9.000;2023-07-13T12:04:50;4.10;;;2.17;;
3261;SDS011;1643;47.746;9.000;2023-07-13T12:07:17;2.13;;;1.80;;
3261;SDS011;1643;47.746;9.000;2023-07-13T12:09:44;1.90;;;1.80;;
3261;SDS011;1643;47.746;9.000;2023-07-13T12:12:15;2.43;;;2.23;;
3261;SDS011;1643;47.746;9.000;2023-07-13T12:14:43;2.77;;;2.13;;
3261;SDS011;1643;47.746;9.000;2023-07-13T12:17:15;2.93;;;1.83;;
3261;SDS011;1643;47.746;9.000;2023-07-13T12:19:44;3.83;;;1.77;;
3261;SDS011;1643;47.746;9.000;2023-07-13T12:22:12;4.00;;;2.00;;
3261;SDS011;1643;47.746;9.000;2023-07-13T12:24:39;3.30;;;2.30;;
3261;SDS011;1643;47.746;9.000;2023-07-13T12:27:06;2.47;;;2.10;;
3261;SDS011;1643;47.746;9.000;2023-07-13T12:29:48;3.50;;;2.20;;
3261;SDS011;1643;47.746;9.000;2023-07-13T12:32:19;2.60;;;2.20;;
3261;SDS011;1643;47.746;9.000;2023-07-13T12:34:55;4.53;;;2.43;;
3261;SDS011;1643;47.746;9.000;2023-07-13T12:37:22;3.07;;;2.10;;
3261;SDS011;1643;47.746;9.000;2023-07-13T12:39:48;6.37;;;2.33;;
3261;SDS011;1643;47.746;9.000;2023-07-13T12:42:28;1.93;;;1.70;;
3261;SDS011;1643;47.746;9.000;2023-07-13T12:47:24;2.80;;;2.00;;
3261;SDS011;1643;47.746;9.000;2023-07-13T12:49:53;2.00;;;1.90;;
3261;SDS011;1643;47.746;9.000;2023-07-13T12:52:22;2.50;;;2.10;;
3261;SDS011;1643;47.746;9.000;2023-07-13T12:54:58;5.23;;;2.10;;
3261;SDS011;1643;47.746;9.000;2023-07-13T12:57:43;4.13;;;2.27;;
3261;SDS011;1643;47.746;9.000;2023-07-13T13:02:57;2.20;;;2.00;;
3261;SDS011;1643;47.746;9.000;2023-07-13T13:05:28;2.27;;;2.07;;
3261;SDS011;1643;47.746;9.000;2023-07-13T13:07:55;2.53;;;2.30;;
3261;SDS011;1643;47.746;9.000;2023-07-13T13:10:20;3.20;;;2.10;;
3261;SDS011;1643;47.746;9.000;2023-07-13T13:12:46;3.53;;;2.43;;
3261;SDS011;1643;47.746;9.000;2023-07-13T13:15:12;4.00;;;2.00;;
3261;SDS011;1643;47.746;9.000;2023-07-13T13:17:38;3.80;;;2.33;;
3261;SDS011;1643;47.746;9.000;2023-07-13T13:20:13;2.23;;;1.90;;
3261;SDS011;1643;47.746;9.000;2023-07-13T13:22:44;6.10;;;3.20;;
3261;SDS011;1643;47.746;9.000;2023-07-13T13:25:10;2.90;;;2.10;;
3261;SDS011;1643;47.746;9.000;2023-07-13T13:27:37;2.40;;;2.20;;
3261;SDS011;1643;47.746;9.000;2023-07-13T13:30:14;3.27;;;2.00;;
3261;SDS011;1643;47.746;9.000;2023-07-13T13:32:42;3.27;;;1.97;;
3261;SDS011;1643;47.746;9.000;2023-07-13T13:35:14;2.17;;;2.00;;
3261;SDS011;1643;47.746;9.000;2023-07-13T13:37:45;3.80;;;2.50;;
3261;SDS011;1643;47.746;9.000;2023-07-13T13:40:17;1.97;;;1.87;;
3261;SDS011;1643;47.746;9.000;2023-07-13T13:42:45;2.20;;;2.00;;
3261;SDS011;1643;47.746;9.000;2023-07-13T13:45:11;2.20;;;2.00;;
3261;SDS011;1643;47.746;9.000;2023-07-13T13:47:42;2.23;;;2.13;;
3261;SDS011;1643;47.746;9.000;2023-07-13T13:52:42;3.03;;;2.00;;
3261;SDS011;1643;47.746;9.000;2023-07-13T13:55:15;2.03;;;1.83;;
3261;SDS011;1643;47.746;9.000;2023-07-13T13:57:44;2.27;;;1.90;;
3261;SDS011;1643;47.746;9.000;2023-07-13T14:00:11;1.90;;;1.80;;
3261;SDS011;1643;47.746;9.000;2023-07-13T14:02:39;2.50;;;2.30;;
3261;SDS011;1643;47.746;9.000;2023-07-13T14:05:09;2.20;;;2.00;;
3261;SDS011;1643;47.746;9.000;2023-07-13T14:07:37;2.20;;;1.70;;
3261;SDS011;1643;47.746;9.000;2023-07-13T14:10:21;3.57;;;2.00;;
3261;SDS011;1643;47.746;9.000;2023-07-13T14:12:48;2.23;;;1.83;;
3261;SDS011;1643;47.746;9.000;2023-07-13T14:17:45;2.10;;;1.73;;
3261;SDS011;1643;47.746;9.000;2023-07-13T14:20:14;5.83;;;2.07;;
3261;SDS011;1643;47.746;9.000;2023-07-13T14:22:41;2.70;;;2.10;;
3261;SDS011;1643;47.746;9.000;2023-07-13T14:25:10;2.70;;;2.47;;
3261;SDS011;1643;47.746;9.000;2023-07-13T14:27:37;6.67;;;2.70;;
3261;SDS011;1643;47.746;9.000;2023-07-13T14:30:07;2.30;;;1.90;;
3261;SDS011;1643;47.746;9.000;2023-07-13T14:32:42;1.93;;;1.80;;
3261;SDS011;1643;47.746;9.000;2023-07-13T14:35:13;4.40;;;2.10;;
3261;SDS011;1643;47.746;9.000;2023-07-13T14:37:39;2.03;;;1.87;;
3261;SDS011;1643;47.746;9.000;2023-07-13T14:40:17;2.73;;;2.17;;
3261;SDS011;1643;47.746;9.000;2023-07-13T14:42:48;4.73;;;1.97;;
3261;SDS011;1643;47.746;9.000;2023-07-13T14:45:15;2.70;;;1.87;;
3261;SDS011;1643;47.746;9.000;2023-07-13T14:47:42;1.80;;;1.70;;
3261;SDS011;1643;47.746;9.000;2023-07-13T14:50:18;4.23;;;2.20;;
3261;SDS011;1643;47.746;9.000;2023-07-13T14:52:46;2.13;;;1.87;;
3261;SDS011;1643;47.746;9.000;2023-07-13T14:55:13;2.00;;;1.80;;
3261;SDS011;1643;47.746;9.000;2023-07-13T14:57:41;2.67;;;1.70;;
3261;SDS011;1643;47.746;9.000;2023-07-13T15:00:12;1.50;;;1.40;;
3261;SDS011;1643;47.746;9.000;2023-07-13T15:02:42;2.07;;;1.87;;
3261;SDS011;1643;47.746;9.000;2023-07-13T15:05:16;1.80;;;1.60;;
3261;SDS011;1643;47.746;9.000;2023-07-13T15:07:43;3.60;;;2.00;;
3261;SDS011;1643;47.746;9.000;2023-07-13T15:12:52;2.13;;;1.60;;
3261;SDS011;1643;47.746;9.000;2023-07-13T15:15:18;1.77;;;1.67;;
3261;SDS011;1643;47.746;9.000;2023-07-13T15:17:45;3.23;;;1.83;;
3261;SDS011;1643;47.746;9.000;2023-07-13T15:20:29;2.13;;;1.80;;
3261;SDS011;1643;47.746;9.000;2023-07-13T15:23:00;1.50;;;1.40;;
3261;SDS011;1643;47.746;9.000;2023-07-13T15:25:27;1.77;;;1.40;;
3261;SDS011;1643;47.746;9.000;2023-07-13T15:27:56;2.00;;;1.90;;
3261;SDS011;1643;47.746;9.000;2023-07-13T15:30:24;2.23;;;1.77;;
3261;SDS011;1643;47.746;9.000;2023-07-13T15:32:52;3.37;;;1.40;;
3261;SDS011;1643;47.746;9.000;2023-07-13T15:35:18;3.63;;;1.50;;
3261;SDS011;1643;47.746;9.000;2023-07-13T15:37:51;1.40;;;1.30;;
3261;SDS011;1643;47.746;9.000;2023-07-13T15:40:16;2.40;;;1.20;;
3261;SDS011;1643;47.746;9.000;2023-07-13T15:42:43;2.20;;;1.53;;
3261;SDS011;1643;47.746;9.000;2023-07-13T15:45:22;2.80;;;1.60;;
3261;SDS011;1643;47.746;9.000;2023-07-13T15:47:49;4.70;;;1.60;;
3261;SDS011;1643;47.746;9.000;2023-07-13T15:50:20;2.43;;;1.63;;
3261;SDS011;1643;47.746;9.000;2023-07-13T15:52:48;1.43;;;1.30;;
3261;SDS011;1643;47.746;9.000;2023-07-13T15:55:19;1.93;;;1.40;;
3261;SDS011;1643;47.746;9.000;2023-07-13T15:57:46;2.00;;;1.27;;
3261;SDS011;1643;47.746;9.000;2023-07-13T16:00:18;2.10;;;1.70;;
3261;SDS011;1643;47.746;9.000;2023-07-13T16:02:49;3.73;;;1.90;;
3261;SDS011;1643;47.746;9.000;2023-07-13T16:05:15;1.60;;;1.50;;
3261;SDS011;1643;47.746;9.000;2023-07-13T16:07:45;2.40;;;1.50;;
3261;SDS011;1643;47.746;9.000;2023-07-13T16:10:15;2.50;;;1.47;;
3261;SDS011;1643;47.746;9.000;2023-07-13T16:12:43;3.90;;;1.50;;
3261;SDS011;1643;47.746;9.000;2023-07-13T16:15:19;2.20;;;1.60;;